createdAt,value
2024-01-29T00:00:29.163Z,54.45
2024-01-29T00:02:56.478Z,54.83
2024-01-29T00:14:02.051Z,55.55
2024-01-29T00:16:47.939Z,57.00
2024-01-29T00:23:33.383Z,50.85
2024-01-29T00:26:00.525Z,50.65
2024-01-29T00:32:41.943Z,46.25
2024-01-29T00:35:09.669Z,46.15
2024-01-29T00:59:46.074Z,47.47
2024-01-29T01:10:44.844Z,44.75
2024-01-29T01:17:37.094Z,43.90
2024-01-29T01:20:04.799Z,41.50
2024-01-29T01:26:51.095Z,39.25
2024-01-29T01:33:49.814Z,45.97
2024-01-29T01:36:16.802Z,45.17
2024-01-29T01:38:43.954Z,40.65
2024-01-29T01:41:10.939Z,47.45
2024-01-29T01:43:37.909Z,45.42
2024-01-29T01:46:05.129Z,44.78
2024-01-29T01:48:33.769Z,46.33
2024-01-29T01:51:01.713Z,58.88
2024-01-29T01:53:32.326Z,47.10
2024-01-29T01:56:02.592Z,44.90
2024-01-29T01:58:29.913Z,50.75
2024-01-29T02:00:59.923Z,44.10
2024-01-29T02:03:28.107Z,48.05
2024-01-29T02:05:56.060Z,133.35
2024-01-29T02:08:23.776Z,59.40
2024-01-29T02:10:51.931Z,46.60
2024-01-29T02:13:18.887Z,47.60
2024-01-29T02:15:45.895Z,42.80
2024-01-29T02:18:12.794Z,46.90
2024-01-29T02:20:39.804Z,48.70
2024-01-29T02:23:06.826Z,44.40
2024-01-29T02:25:35.209Z,52.58
2024-01-29T02:28:02.657Z,48.10
2024-01-29T02:30:29.794Z,48.72
2024-01-29T02:32:56.806Z,48.58
2024-01-29T02:35:24.819Z,43.40
2024-01-29T02:37:51.831Z,45.88
2024-01-29T02:40:18.837Z,48.00
2024-01-29T02:42:45.881Z,50.03
2024-01-29T02:45:12.810Z,48.63
2024-01-29T02:47:39.860Z,47.47
2024-01-29T02:50:07.864Z,47.35
2024-01-29T02:52:35.192Z,47.05
2024-01-29T02:55:02.408Z,47.78
2024-01-29T02:57:29.440Z,45.53
2024-01-29T02:59:56.296Z,44.88
2024-01-29T03:02:23.103Z,47.28
2024-01-29T03:04:50.235Z,47.70
2024-01-29T03:07:17.769Z,58.15
2024-01-29T03:09:44.695Z,53.13
2024-01-29T03:12:11.593Z,52.35
2024-01-29T03:14:39.508Z,49.72
2024-01-29T03:17:06.361Z,49.13
2024-01-29T03:19:33.503Z,51.83
2024-01-29T03:22:00.898Z,48.85
2024-01-29T03:24:27.810Z,49.97
2024-01-29T03:26:54.991Z,43.55
2024-01-29T03:29:21.917Z,43.53
2024-01-29T03:31:48.791Z,44.78
2024-01-29T03:34:15.831Z,44.17
2024-01-29T03:36:45.529Z,44.70
2024-01-29T03:39:13.557Z,44.72
2024-01-29T03:41:40.476Z,42.05
2024-01-29T03:44:07.701Z,46.45
2024-01-29T03:46:34.713Z,46.28
2024-01-29T03:49:01.847Z,45.65
2024-01-29T03:51:28.846Z,48.72
2024-01-29T03:53:55.738Z,46.30
2024-01-29T03:56:22.734Z,47.47
2024-01-29T03:58:49.633Z,48.90
2024-01-29T04:01:27.733Z,47.97
2024-01-29T04:03:55.082Z,48.88
2024-01-29T04:06:22.039Z,44.72
2024-01-29T04:08:49.136Z,41.47
2024-01-29T04:11:16.484Z,43.28
2024-01-29T04:13:43.449Z,41.85
2024-01-29T04:16:12.145Z,40.30
2024-01-29T04:18:40.265Z,38.42
2024-01-29T04:21:07.865Z,40.03
2024-01-29T04:23:36.600Z,41.85
2024-01-29T04:26:04.060Z,42.47
2024-01-29T04:28:31.039Z,43.72
2024-01-29T04:30:58.871Z,44.75
2024-01-29T04:33:28.027Z,40.90
2024-01-29T04:35:54.989Z,43.10
2024-01-29T04:38:21.883Z,43.88
2024-01-29T04:40:48.763Z,39.88
2024-01-29T04:43:15.646Z,39.65
2024-01-29T04:45:43.643Z,40.80
2024-01-29T04:48:10.680Z,40.47
2024-01-29T04:50:37.797Z,39.92
2024-01-29T04:53:05.091Z,38.95
2024-01-29T04:55:32.062Z,40.60
2024-01-29T04:57:59.289Z,40.17
2024-01-29T05:00:26.279Z,41.67
2024-01-29T05:02:53.449Z,43.40
2024-01-29T05:05:20.467Z,43.92
2024-01-29T05:07:47.428Z,45.30
2024-01-29T05:10:14.585Z,44.95
2024-01-29T05:12:41.530Z,48.40
2024-01-29T05:15:08.789Z,41.88
2024-01-29T05:17:36.129Z,44.33
2024-01-29T05:20:03.435Z,43.28
2024-01-29T05:22:30.538Z,42.15
2024-01-29T05:24:57.449Z,44.88
2024-01-29T05:27:24.453Z,44.67
2024-01-29T05:29:51.475Z,43.85
2024-01-29T05:32:18.875Z,42.72
2024-01-29T05:34:45.890Z,45.75
2024-01-29T05:37:12.958Z,45.92
2024-01-29T05:39:39.972Z,51.05
2024-01-29T05:42:07.138Z,47.90
2024-01-29T05:44:34.079Z,46.70
2024-01-29T05:47:01.205Z,48.42
2024-01-29T05:49:28.329Z,51.17
2024-01-29T05:51:55.631Z,51.10
2024-01-29T05:54:22.719Z,51.22
2024-01-29T05:56:51.601Z,48.63
2024-01-29T05:59:18.973Z,52.53
2024-01-29T06:01:46.179Z,48.15
2024-01-29T06:04:13.348Z,47.55
2024-01-29T06:06:42.523Z,46.35
2024-01-29T06:09:10.884Z,49.28
2024-01-29T06:11:38.522Z,48.63
2024-01-29T06:14:06.029Z,50.20
2024-01-29T06:16:33.704Z,50.33
2024-01-29T06:19:00.984Z,52.13
2024-01-29T06:21:27.977Z,50.22
2024-01-29T06:23:55.035Z,51.40
2024-01-29T06:26:22.243Z,54.13
2024-01-29T06:28:49.170Z,53.78
2024-01-29T06:31:16.182Z,53.85
2024-01-29T06:33:43.092Z,48.38
2024-01-29T06:36:16.195Z,58.22
2024-01-29T06:38:43.026Z,54.80
2024-01-29T06:41:19.039Z,52.85
2024-01-29T06:43:45.976Z,54.00
2024-01-29T06:46:12.960Z,53.72
2024-01-29T06:48:40.360Z,49.92
2024-01-29T06:51:07.591Z,50.75
2024-01-29T06:53:35.957Z,51.50
2024-01-29T06:56:08.885Z,52.95
2024-01-29T06:58:39.427Z,48.60
2024-01-29T07:01:07.321Z,48.00
2024-01-29T07:03:34.488Z,42.60
2024-01-29T07:06:02.968Z,43.25
2024-01-29T07:08:30.528Z,46.03
2024-01-29T07:10:57.510Z,42.00
2024-01-29T07:13:24.847Z,44.10
2024-01-29T07:15:51.744Z,42.92
2024-01-29T07:18:19.378Z,39.78
2024-01-29T07:20:46.850Z,39.55
2024-01-29T07:23:15.437Z,43.70
2024-01-29T07:25:42.295Z,41.67
2024-01-29T07:28:09.925Z,43.60
2024-01-29T07:30:37.130Z,39.58
2024-01-29T07:33:05.141Z,39.95
2024-01-29T07:35:33.570Z,42.72
2024-01-29T07:38:00.519Z,40.08
2024-01-29T07:40:27.441Z,42.83
2024-01-29T07:42:54.725Z,40.92
2024-01-29T07:45:21.743Z,42.28
2024-01-29T07:47:48.715Z,46.03
2024-01-29T07:50:15.847Z,45.88
2024-01-29T07:52:43.144Z,46.17
2024-01-29T07:55:10.335Z,44.17
2024-01-29T07:57:39.036Z,43.90
2024-01-29T08:00:06.952Z,48.85
2024-01-29T08:02:34.240Z,47.47
2024-01-29T08:05:01.379Z,52.30
2024-01-29T08:07:28.305Z,50.22
2024-01-29T08:09:55.237Z,47.97
2024-01-29T08:12:22.628Z,53.40
2024-01-29T08:14:50.538Z,55.88
2024-01-29T08:17:17.941Z,61.88
2024-01-29T08:19:45.144Z,64.35
2024-01-29T08:22:12.218Z,64.25
2024-01-29T08:24:40.089Z,58.40
2024-01-29T08:27:06.961Z,59.25
2024-01-29T08:29:33.902Z,50.65
2024-01-29T08:32:00.991Z,55.17
2024-01-29T08:34:30.979Z,53.45
2024-01-29T08:36:59.944Z,55.30
2024-01-29T08:39:27.104Z,53.85
2024-01-29T08:41:54.277Z,52.60
2024-01-29T08:44:21.922Z,52.67
2024-01-29T08:46:48.903Z,53.55
2024-01-29T08:49:17.824Z,51.75
2024-01-29T08:51:46.478Z,53.33
2024-01-29T08:54:13.667Z,57.67
2024-01-29T08:56:41.306Z,58.80
2024-01-29T08:59:09.213Z,57.95
2024-01-29T09:01:36.188Z,56.03
2024-01-29T09:04:03.710Z,58.83
2024-01-29T09:06:30.802Z,57.67
2024-01-29T09:08:57.633Z,59.40
2024-01-29T09:11:24.758Z,59.97
2024-01-29T09:13:51.651Z,57.72
2024-01-29T09:16:18.577Z,57.20
2024-01-29T09:18:45.629Z,55.97
2024-01-29T09:21:12.824Z,58.67
2024-01-29T09:23:40.374Z,63.45
2024-01-29T09:26:08.132Z,59.47
2024-01-29T09:28:36.331Z,57.92
2024-01-29T09:31:03.526Z,59.88
2024-01-29T09:33:30.929Z,56.08
2024-01-29T09:35:57.973Z,59.03
2024-01-29T09:38:24.889Z,59.47
2024-01-29T09:40:53.310Z,60.75
2024-01-29T09:43:22.489Z,57.80
2024-01-29T09:45:54.032Z,57.25
2024-01-29T09:48:22.922Z,58.72
2024-01-29T09:50:50.688Z,59.03
2024-01-29T09:53:22.310Z,59.70
2024-01-29T09:55:49.861Z,58.63
2024-01-29T09:58:17.428Z,57.30
2024-01-29T10:00:44.840Z,56.70
2024-01-29T10:03:22.441Z,56.60
2024-01-29T10:05:51.972Z,56.30
2024-01-29T10:08:20.313Z,55.03
2024-01-29T10:10:49.537Z,56.67
2024-01-29T10:13:16.648Z,57.40
2024-01-29T10:15:46.601Z,58.30
2024-01-29T10:18:15.202Z,56.80
2024-01-29T10:20:42.403Z,56.22
2024-01-29T10:23:09.303Z,59.78
2024-01-29T10:25:40.466Z,54.00
2024-01-29T10:28:12.340Z,58.22
2024-01-29T10:30:43.402Z,56.90
2024-01-29T10:33:10.941Z,56.90
2024-01-29T10:35:39.202Z,55.40
2024-01-29T10:38:07.502Z,53.17
2024-01-29T10:40:36.480Z,54.15
2024-01-29T10:43:04.770Z,53.60
2024-01-29T10:45:39.503Z,54.40
2024-01-29T10:48:13.758Z,54.30
2024-01-29T10:50:42.691Z,53.67
2024-01-29T10:53:14.651Z,56.17
2024-01-29T10:55:42.717Z,55.50
2024-01-29T10:58:12.008Z,56.17
2024-01-29T11:00:42.398Z,56.63
2024-01-29T11:03:11.822Z,59.08
2024-01-29T11:05:40.543Z,55.53
2024-01-29T11:08:15.911Z,54.17
2024-01-29T11:10:43.171Z,55.47
2024-01-29T11:13:13.388Z,51.05
2024-01-29T11:15:42.598Z,52.75
2024-01-29T11:18:12.450Z,51.42
2024-01-29T11:20:40.670Z,51.55
2024-01-29T11:23:19.134Z,51.88
2024-01-29T11:25:52.513Z,51.58
2024-01-29T11:28:20.272Z,49.90
2024-01-29T11:30:51.446Z,51.03
2024-01-29T11:33:20.176Z,52.00
2024-01-29T11:35:48.310Z,52.17
2024-01-29T11:38:21.799Z,52.40
2024-01-29T11:40:49.065Z,52.35
2024-01-29T11:43:19.068Z,52.65
2024-01-29T11:45:49.090Z,50.03
2024-01-29T11:48:18.490Z,50.88
2024-01-29T11:50:48.309Z,45.85
2024-01-29T11:53:17.823Z,51.95
2024-01-29T11:55:47.858Z,49.72
2024-01-29T11:58:17.948Z,50.83
2024-01-29T12:00:46.198Z,52.30
2024-01-29T12:03:18.850Z,52.38
2024-01-29T12:05:46.761Z,53.33
2024-01-29T12:08:15.277Z,52.63
2024-01-29T12:10:46.579Z,53.13
2024-01-29T12:13:14.308Z,52.08
2024-01-29T12:15:42.128Z,53.38
2024-01-29T12:18:24.419Z,51.75
2024-01-29T12:20:52.469Z,55.13
2024-01-29T12:23:22.748Z,55.97
2024-01-29T12:25:58.944Z,52.97
2024-01-29T12:28:27.836Z,54.60
2024-01-29T12:31:09.658Z,53.80
2024-01-29T12:33:37.667Z,53.72
2024-01-29T12:36:16.368Z,54.72
2024-01-29T12:38:45.068Z,54.67
2024-01-29T12:41:12.146Z,53.80
2024-01-29T12:43:40.776Z,53.50
2024-01-29T12:46:13.115Z,52.17
2024-01-29T12:48:40.811Z,52.33
2024-01-29T12:51:12.663Z,51.20
2024-01-29T12:53:41.244Z,50.70
2024-01-29T12:56:08.325Z,50.92
2024-01-29T12:58:35.202Z,51.15
2024-01-29T13:01:02.446Z,50.83
2024-01-29T13:03:29.937Z,48.80
2024-01-29T13:05:58.806Z,51.70
2024-01-29T13:08:27.990Z,50.60
2024-01-29T13:10:55.613Z,53.97
2024-01-29T13:13:22.882Z,55.55
2024-01-29T13:15:54.140Z,54.35
2024-01-29T13:18:22.690Z,56.03
2024-01-29T13:20:49.932Z,52.97
2024-01-29T13:23:17.947Z,53.78
2024-01-29T13:25:45.762Z,51.72
2024-01-29T13:28:13.250Z,52.17
2024-01-29T13:30:40.294Z,52.03
2024-01-29T13:33:08.088Z,51.47
2024-01-29T13:35:35.229Z,51.70
2024-01-29T13:38:02.458Z,53.35
2024-01-29T13:40:29.424Z,55.90
2024-01-29T13:42:58.119Z,55.28
2024-01-29T13:45:26.482Z,53.17
2024-01-29T13:47:54.322Z,51.58
2024-01-29T13:50:21.792Z,51.45
2024-01-29T13:52:48.875Z,51.75
2024-01-29T13:55:16.260Z,49.10
2024-01-29T13:57:43.894Z,50.42
2024-01-29T14:00:12.202Z,53.15
2024-01-29T14:05:31.485Z,48.92
2024-01-29T14:07:58.682Z,50.38
2024-01-29T14:10:25.983Z,49.88
2024-01-29T14:12:52.986Z,48.75
2024-01-29T14:15:20.239Z,49.85
2024-01-29T14:17:47.302Z,47.67
2024-01-29T14:20:14.994Z,48.72
2024-01-29T14:22:42.144Z,47.90
2024-01-29T14:25:09.234Z,51.53
2024-01-29T14:27:36.198Z,50.13
2024-01-29T14:30:03.427Z,50.80
2024-01-29T14:32:30.555Z,48.55
2024-01-29T14:34:57.731Z,50.28
2024-01-29T14:37:25.575Z,50.20
2024-01-29T14:39:52.556Z,48.47
2024-01-29T14:42:19.532Z,47.40
2024-01-29T14:44:46.552Z,48.28
2024-01-29T14:47:17.433Z,50.35
2024-01-29T14:49:45.095Z,49.22
2024-01-29T14:52:13.373Z,50.28
2024-01-29T14:54:40.877Z,47.75
2024-01-29T14:57:08.250Z,47.92
2024-01-29T14:59:35.167Z,51.45
2024-01-29T15:02:07.927Z,49.60
2024-01-29T15:04:35.176Z,47.05
2024-01-29T15:07:02.467Z,47.15
2024-01-29T15:09:31.384Z,47.97
2024-01-29T15:11:58.359Z,48.17
2024-01-29T15:14:25.364Z,50.53
2024-01-29T15:17:03.098Z,49.13
2024-01-29T15:19:30.801Z,49.25
2024-01-29T15:21:58.141Z,46.63
2024-01-29T15:24:25.430Z,47.78
2024-01-29T15:26:53.859Z,50.33
2024-01-29T15:29:21.165Z,50.10
2024-01-29T15:31:48.860Z,47.13
2024-01-29T15:34:19.186Z,48.45
2024-01-29T15:36:46.677Z,50.95
2024-01-29T15:39:14.532Z,47.50
2024-01-29T15:41:42.220Z,50.65
2024-01-29T15:44:09.125Z,47.38
2024-01-29T15:46:45.347Z,45.92
2024-01-29T15:49:12.830Z,46.55
2024-01-29T15:51:41.161Z,46.35
2024-01-29T15:54:08.308Z,46.17
2024-01-29T15:56:35.261Z,48.33
2024-01-29T15:59:02.584Z,47.08
2024-01-29T16:01:29.580Z,47.72
2024-01-29T16:03:57.156Z,46.35
2024-01-29T16:06:24.951Z,47.42
2024-01-29T16:08:51.839Z,46.33
2024-01-29T16:11:18.915Z,48.22
2024-01-29T16:13:45.755Z,46.90
2024-01-29T16:16:15.931Z,48.25
2024-01-29T16:18:44.027Z,46.13
2024-01-29T16:21:19.617Z,48.95
2024-01-29T16:23:47.670Z,46.15
2024-01-29T16:26:22.383Z,47.03
2024-01-29T16:28:49.423Z,49.78
2024-01-29T16:31:16.687Z,46.97
2024-01-29T16:33:44.265Z,49.10
2024-01-29T16:36:20.156Z,49.13
2024-01-29T16:38:48.124Z,46.08
2024-01-29T16:41:25.291Z,47.55
2024-01-29T16:43:53.698Z,50.00
2024-01-29T16:46:24.226Z,47.90
2024-01-29T16:48:51.644Z,47.90
2024-01-29T16:51:26.627Z,48.60
2024-01-29T16:53:54.888Z,47.40
2024-01-29T16:56:27.926Z,47.88
2024-01-29T16:58:55.775Z,48.03
2024-01-29T17:01:23.821Z,47.80
2024-01-29T17:03:50.954Z,47.58
2024-01-29T17:06:18.212Z,47.67
2024-01-29T17:08:45.237Z,48.00
2024-01-29T17:11:14.149Z,49.67
2024-01-29T17:13:42.909Z,50.50
2024-01-29T17:16:10.001Z,47.83
2024-01-29T17:18:38.562Z,44.90
2024-01-29T17:21:05.817Z,46.03
2024-01-29T17:23:32.890Z,46.55
2024-01-29T17:26:00.064Z,45.38
2024-01-29T17:28:27.662Z,48.55
2024-01-29T17:30:55.066Z,48.58
2024-01-29T17:33:22.844Z,48.33
2024-01-29T17:35:49.810Z,50.05
2024-01-29T17:38:16.714Z,51.22
2024-01-29T17:40:44.053Z,50.90
2024-01-29T17:43:12.134Z,49.33
2024-01-29T17:45:39.496Z,47.47
2024-01-29T17:48:07.399Z,46.97
2024-01-29T17:50:34.384Z,48.65
2024-01-29T17:53:04.170Z,48.70
2024-01-29T17:55:31.620Z,49.70
2024-01-29T17:57:58.822Z,48.38
2024-01-29T18:00:26.250Z,49.45
2024-01-29T18:02:53.120Z,48.55
2024-01-29T18:05:21.678Z,49.42
2024-01-29T18:07:49.066Z,49.53
2024-01-29T18:10:16.351Z,47.72
2024-01-29T18:12:43.665Z,48.50
2024-01-29T18:15:10.746Z,49.28
2024-01-29T18:17:38.192Z,50.40
2024-01-29T18:20:05.775Z,51.28
2024-01-29T18:22:32.726Z,48.88
2024-01-29T18:24:59.802Z,47.65
2024-01-29T18:27:27.884Z,49.47
2024-01-29T18:29:54.812Z,47.47
2024-01-29T18:32:21.775Z,48.05
2024-01-29T18:35:48.492Z,48.55
2024-01-29T18:38:15.415Z,50.75
2024-01-29T18:40:42.255Z,52.83
2024-01-29T18:43:09.195Z,51.28
2024-01-29T18:45:36.152Z,51.15
2024-01-29T18:48:03.170Z,51.25
2024-01-29T18:50:30.134Z,49.67
2024-01-29T18:52:57.048Z,51.38
2024-01-29T18:55:25.193Z,52.08
2024-01-29T18:57:52.218Z,51.53
2024-01-29T19:00:19.649Z,52.70
2024-01-29T19:02:46.661Z,54.92
2024-01-29T19:05:14.460Z,57.67
2024-01-29T19:07:43.300Z,55.97
2024-01-29T19:10:11.245Z,54.33
2024-01-29T19:12:39.403Z,54.10
2024-01-29T19:15:07.098Z,52.97
2024-01-29T19:17:34.102Z,52.50
2024-01-29T19:20:01.258Z,51.03
2024-01-29T19:22:28.254Z,50.70
2024-01-29T19:24:55.283Z,53.92
2024-01-29T19:27:22.557Z,52.28
2024-01-29T19:29:49.457Z,53.38
2024-01-29T19:32:17.388Z,54.88
2024-01-29T19:34:44.441Z,54.22
2024-01-29T19:37:11.610Z,54.05
2024-01-29T19:39:40.334Z,55.65
2024-01-29T19:42:07.416Z,56.40
2024-01-29T19:44:34.468Z,54.78
2024-01-29T19:47:01.472Z,55.33
2024-01-29T19:49:28.458Z,53.38
2024-01-29T19:51:55.748Z,54.20
2024-01-29T19:54:22.726Z,52.42
2024-01-29T19:56:49.743Z,52.63
2024-01-29T19:59:19.395Z,54.15
2024-01-29T20:01:47.050Z,55.95
2024-01-29T20:04:14.535Z,56.65
2024-01-29T20:06:41.508Z,55.45
2024-01-29T20:09:08.793Z,52.53
2024-01-29T20:11:35.615Z,53.58
2024-01-29T20:14:02.656Z,55.20
2024-01-29T20:16:29.974Z,59.08
2024-01-29T20:18:57.028Z,59.60
2024-01-29T20:21:24.016Z,63.67
2024-01-29T20:23:54.985Z,63.75
2024-01-29T20:26:22.168Z,59.70
2024-01-29T20:28:49.117Z,57.05
2024-01-29T20:31:26.923Z,55.28
2024-01-29T20:33:54.634Z,68.18
2024-01-29T20:36:22.337Z,58.38
2024-01-29T20:38:50.196Z,56.63
2024-01-29T20:41:32.182Z,51.67
2024-01-29T20:44:05.968Z,55.38
2024-01-29T20:46:33.056Z,70.15
2024-01-29T20:49:02.284Z,62.80
2024-01-29T20:51:29.226Z,59.05
2024-01-29T20:53:56.273Z,61.70
2024-01-29T20:56:25.218Z,59.00
2024-01-29T20:58:52.792Z,61.67
2024-01-29T21:01:20.478Z,59.88
2024-01-29T21:03:47.812Z,68.00
2024-01-29T21:06:15.277Z,70.47
2024-01-29T21:08:42.306Z,70.22
2024-01-29T21:11:09.244Z,73.35
2024-01-29T21:13:36.399Z,76.10
2024-01-29T21:16:03.403Z,77.72
2024-01-29T21:18:30.332Z,79.82
2024-01-29T21:20:57.263Z,77.50
2024-01-29T21:23:24.250Z,75.10
2024-01-29T21:25:51.127Z,73.68
2024-01-29T21:28:18.187Z,73.18
2024-01-29T21:30:45.475Z,68.47
2024-01-29T21:33:13.700Z,61.58
2024-01-29T21:35:40.657Z,61.58
2024-01-29T21:38:07.540Z,60.47
2024-01-29T21:40:34.649Z,60.17
2024-01-29T21:43:02.215Z,59.45
2024-01-29T21:45:29.203Z,56.75
2024-01-29T21:47:56.299Z,57.22
2024-01-29T21:50:23.297Z,63.70
2024-01-29T21:52:50.438Z,67.43
2024-01-29T21:55:19.566Z,68.03
2024-01-29T21:57:46.562Z,64.93
2024-01-29T22:00:13.803Z,64.60
2024-01-29T22:02:40.697Z,63.08
2024-01-29T22:05:07.962Z,71.07
2024-01-29T22:07:34.979Z,68.40
2024-01-29T22:10:02.180Z,60.95
2024-01-29T22:12:29.142Z,65.47
2024-01-29T22:14:56.080Z,68.88
2024-01-29T22:17:23.020Z,68.78
2024-01-29T22:19:51.428Z,64.95
2024-01-29T22:22:19.911Z,72.30
2024-01-29T22:24:48.396Z,74.00
2024-01-29T22:27:15.287Z,73.53
2024-01-29T22:29:42.170Z,74.85
2024-01-29T22:32:09.197Z,73.80
2024-01-29T22:34:36.245Z,75.38
2024-01-29T22:37:03.266Z,71.43
2024-01-29T22:39:30.145Z,69.63
2024-01-29T22:41:56.977Z,71.00
2024-01-29T22:44:23.834Z,70.90
2024-01-29T22:46:50.700Z,66.63
2024-01-29T22:49:18.752Z,61.80
2024-01-29T22:51:46.084Z,64.68
2024-01-29T22:54:13.354Z,66.63
2024-01-29T22:56:40.742Z,67.57
2024-01-29T22:59:07.709Z,68.13
2024-01-29T23:01:35.354Z,57.75
2024-01-29T23:04:03.237Z,51.45
2024-01-29T23:06:30.861Z,52.63
2024-01-29T23:08:57.818Z,54.28
2024-01-29T23:11:24.790Z,58.17
2024-01-29T23:13:51.978Z,59.35
2024-01-29T23:16:18.931Z,69.07
2024-01-29T23:18:46.181Z,62.78
2024-01-29T23:21:13.258Z,64.90
2024-01-29T23:23:40.405Z,65.68
2024-01-29T23:26:07.298Z,63.20
2024-01-29T23:28:35.571Z,59.15
2024-01-29T23:31:02.751Z,64.25
2024-01-29T23:33:29.806Z,64.63
2024-01-29T23:35:56.914Z,57.97
2024-01-29T23:38:24.024Z,58.53
2024-01-29T23:40:51.016Z,56.97
2024-01-29T23:43:18.173Z,56.67
2024-01-29T23:45:45.629Z,54.03
2024-01-29T23:48:12.892Z,56.60
2024-01-29T23:50:39.793Z,57.45
2024-01-29T23:53:07.007Z,54.20
2024-01-29T23:55:33.977Z,56.60
2024-01-29T23:58:00.820Z,55.35
